createdAt,value
2023-03-12T00:01:31.063Z,74.90
2023-03-12T00:04:02.462Z,74.93
2023-03-12T00:06:31.623Z,74.63
2023-03-12T00:09:02.609Z,74.65
2023-03-12T00:11:32.130Z,74.98
2023-03-12T00:14:00.903Z,74.59
2023-03-12T00:16:30.329Z,74.55
2023-03-12T00:18:59.880Z,74.40
2023-03-12T00:21:28.697Z,74.71
2023-03-12T00:23:58.448Z,74.91
2023-03-12T00:26:28.128Z,74.65
2023-03-12T00:28:57.697Z,74.60
2023-03-12T00:31:29.234Z,74.65
2023-03-12T00:33:57.860Z,74.49
2023-03-12T00:36:28.954Z,75.04
2023-03-12T00:38:59.338Z,75.05
2023-03-12T00:41:28.853Z,75.34
2023-03-12T00:43:58.902Z,75.37
2023-03-12T00:46:29.035Z,75.55
2023-03-12T00:49:00.334Z,75.81
2023-03-12T00:51:29.515Z,76.00
2023-03-12T00:53:59.214Z,76.29
2023-03-12T00:56:29.139Z,75.87
2023-03-12T00:58:58.344Z,76.26
2023-03-12T01:01:28.550Z,76.21
2023-03-12T01:03:59.563Z,75.99
2023-03-12T01:06:28.891Z,75.62
2023-03-12T01:08:57.960Z,76.36
2023-03-12T01:11:27.911Z,75.56
2023-03-12T01:13:57.749Z,75.52
2023-03-12T01:16:28.629Z,75.80
2023-03-12T01:19:00.260Z,75.63
2023-03-12T01:21:31.411Z,75.17
2023-03-12T01:24:00.565Z,75.13
2023-03-12T01:26:32.287Z,74.87
2023-03-12T01:29:02.793Z,74.83
2023-03-12T01:31:32.316Z,75.05
2023-03-12T01:34:02.701Z,75.39
2023-03-12T01:36:32.282Z,74.84
2023-03-12T01:39:04.099Z,75.25
2023-03-12T01:41:35.276Z,74.79
2023-03-12T01:44:06.958Z,74.65
2023-03-12T01:46:39.016Z,74.89
2023-03-12T01:49:33.031Z,74.49
2023-03-12T01:52:06.392Z,74.13
2023-03-12T01:54:54.473Z,74.10
2023-03-12T01:57:35.080Z,74.16
2023-03-12T02:00:15.639Z,73.84
2023-03-12T02:02:45.447Z,73.46
2023-03-12T02:05:24.566Z,73.63
2023-03-12T02:07:54.602Z,73.70
2023-03-12T02:10:25.838Z,73.58
2023-03-12T02:12:56.202Z,73.60
2023-03-12T02:15:27.052Z,73.62
2023-03-12T02:17:57.198Z,73.27
2023-03-12T02:20:56.222Z,73.15
2023-03-12T02:23:36.382Z,73.20
2023-03-12T02:26:07.272Z,72.99
2023-03-12T02:28:43.733Z,73.19
2023-03-12T02:31:18.958Z,73.36
2023-03-12T02:33:49.272Z,73.42
2023-03-12T02:36:22.276Z,73.18
2023-03-12T02:38:54.185Z,73.19
2023-03-12T02:41:30.176Z,72.99
2023-03-12T02:44:21.233Z,73.41
2023-03-12T02:46:56.338Z,73.40
2023-03-12T02:49:28.106Z,73.31
2023-03-12T02:52:00.582Z,73.59
2023-03-12T02:54:32.387Z,73.02
2023-03-12T02:57:03.433Z,73.66
2023-03-12T02:59:34.734Z,73.20
2023-03-12T03:02:07.400Z,73.43
2023-03-12T03:04:36.346Z,73.18
2023-03-12T03:07:07.775Z,73.25
2023-03-12T03:09:38.091Z,73.18
2023-03-12T03:12:08.427Z,73.41
2023-03-12T03:14:39.277Z,73.33
2023-03-12T03:17:09.099Z,73.46
2023-03-12T03:19:39.035Z,73.85
2023-03-12T03:22:09.754Z,73.66
2023-03-12T03:24:39.183Z,74.07
2023-03-12T03:27:10.324Z,74.10
2023-03-12T03:29:41.636Z,74.21
2023-03-12T03:32:11.256Z,74.33
2023-03-12T03:34:42.113Z,74.25
2023-03-12T03:37:14.697Z,74.40
2023-03-12T03:39:48.560Z,74.82
2023-03-12T03:42:23.271Z,75.01
2023-03-12T03:44:53.725Z,75.04
2023-03-12T03:47:24.874Z,75.15
2023-03-12T03:49:55.849Z,75.11
2023-03-12T03:52:26.651Z,75.83
2023-03-12T03:54:57.890Z,75.61
2023-03-12T03:57:28.336Z,75.87
2023-03-12T04:00:03.885Z,76.10
2023-03-12T04:02:43.596Z,76.41
2023-03-12T04:05:13.290Z,77.10
2023-03-12T04:07:43.210Z,77.21
2023-03-12T04:10:13.954Z,77.38
2023-03-12T04:12:43.704Z,77.78
2023-03-12T04:15:13.070Z,78.22
2023-03-12T04:17:42.519Z,77.79
2023-03-12T04:20:13.364Z,77.73
2023-03-12T04:22:43.522Z,78.64
2023-03-12T04:25:12.538Z,78.39
2023-03-12T04:27:41.775Z,78.53
2023-03-12T04:30:11.739Z,78.94
2023-03-12T04:32:42.057Z,78.64
2023-03-12T04:35:11.550Z,78.62
2023-03-12T04:37:41.482Z,78.85
2023-03-12T04:40:11.274Z,79.07
2023-03-12T04:42:40.497Z,79.29
2023-03-12T04:45:10.731Z,79.04
2023-03-12T04:47:41.650Z,78.77
2023-03-12T04:50:12.684Z,79.15
2023-03-12T04:52:42.189Z,79.00
2023-03-12T04:55:11.199Z,78.94
2023-03-12T04:57:40.481Z,79.59
2023-03-12T05:00:13.461Z,79.22
2023-03-12T05:02:43.118Z,79.28
2023-03-12T05:05:12.519Z,79.30
2023-03-12T05:07:42.149Z,78.95
2023-03-12T05:10:11.996Z,79.03
2023-03-12T05:12:41.770Z,79.47
2023-03-12T05:15:12.067Z,79.24
2023-03-12T05:17:41.538Z,79.14
2023-03-12T05:20:11.465Z,79.00
2023-03-12T05:22:41.182Z,78.89
2023-03-12T05:25:10.457Z,78.71
2023-03-12T05:27:39.758Z,78.06
2023-03-12T05:30:10.082Z,77.54
2023-03-12T05:32:39.483Z,77.53
2023-03-12T05:35:08.257Z,77.45
2023-03-12T05:37:37.982Z,77.38
2023-03-12T05:40:08.401Z,76.17
2023-03-12T05:42:38.118Z,74.26
2023-03-12T05:45:09.723Z,73.72
2023-03-12T05:47:39.274Z,73.30
2023-03-12T05:50:10.033Z,71.89
2023-03-12T05:52:39.009Z,70.79
2023-03-12T05:55:08.188Z,70.50
2023-03-12T05:57:36.987Z,69.57
2023-03-12T06:00:06.473Z,69.61
2023-03-12T06:02:42.091Z,69.00
2023-03-12T06:05:12.035Z,68.23
2023-03-12T06:07:41.246Z,65.68
2023-03-12T06:10:10.442Z,65.41
2023-03-12T06:12:39.321Z,64.79
2023-03-12T06:15:08.731Z,64.41
2023-03-12T06:17:38.023Z,64.43
2023-03-12T06:20:07.640Z,63.56
2023-03-12T06:22:36.834Z,62.24
2023-03-12T06:25:06.244Z,62.38
2023-03-12T06:27:35.224Z,61.75
2023-03-12T06:30:04.425Z,62.51
2023-03-12T06:32:33.467Z,62.36
2023-03-12T06:35:02.917Z,60.91
2023-03-12T06:37:31.719Z,60.25
2023-03-12T06:40:00.391Z,58.25
2023-03-12T06:42:29.077Z,58.21
2023-03-12T06:44:58.077Z,56.86
2023-03-12T06:47:26.765Z,57.25
2023-03-12T06:49:55.338Z,56.30
2023-03-12T06:52:23.821Z,56.32
2023-03-12T06:54:52.924Z,55.67
2023-03-12T06:57:21.803Z,54.81
2023-03-12T06:59:50.772Z,56.07
2023-03-12T07:02:19.414Z,55.93
2023-03-12T07:04:48.024Z,55.87
2023-03-12T07:07:17.368Z,53.89
2023-03-12T07:09:45.954Z,54.12
2023-03-12T07:12:14.431Z,54.16
2023-03-12T07:14:43.329Z,55.58
2023-03-12T07:17:12.483Z,57.11
2023-03-12T07:19:41.417Z,55.46
2023-03-12T07:22:10.102Z,55.31
2023-03-12T07:24:38.686Z,53.82
2023-03-12T07:27:07.165Z,54.53
2023-03-12T07:29:36.158Z,54.36
2023-03-12T07:32:05.459Z,53.62
2023-03-12T07:34:34.052Z,53.71
2023-03-12T07:37:02.722Z,51.76
2023-03-12T07:39:31.755Z,51.64
2023-03-12T07:42:00.347Z,51.77
2023-03-12T07:44:30.009Z,51.09
2023-03-12T07:47:02.962Z,50.56
2023-03-12T07:49:39.822Z,49.12
2023-03-12T07:52:11.706Z,50.19
2023-03-12T07:54:40.459Z,50.28
2023-03-12T07:57:09.190Z,50.65
2023-03-12T07:59:38.098Z,50.46
2023-03-12T08:02:07.302Z,49.99
2023-03-12T08:04:35.998Z,50.38
2023-03-12T08:07:05.782Z,50.27
2023-03-12T08:09:35.804Z,50.21
2023-03-12T08:12:04.827Z,50.03
2023-03-12T08:14:33.805Z,50.29
2023-03-12T08:17:02.488Z,50.62
2023-03-12T08:19:31.368Z,51.67
2023-03-12T08:22:00.049Z,51.16
2023-03-12T08:24:28.532Z,50.31
2023-03-12T08:26:57.111Z,50.55
2023-03-12T08:29:25.905Z,51.93
2023-03-12T08:32:04.411Z,52.34
2023-03-12T08:34:35.071Z,52.24
2023-03-12T08:37:03.939Z,51.99
2023-03-12T08:39:32.634Z,50.28
2023-03-12T08:42:01.207Z,49.95
2023-03-12T08:44:29.999Z,48.77
2023-03-12T08:46:58.278Z,49.38
2023-03-12T08:49:26.651Z,49.95
2023-03-12T08:51:55.133Z,48.80
2023-03-12T08:54:24.021Z,48.46
2023-03-12T08:56:53.186Z,48.46
2023-03-12T08:59:22.545Z,48.67
2023-03-12T09:01:51.321Z,48.35
2023-03-12T09:04:20.351Z,48.44
2023-03-12T09:06:48.888Z,47.82
2023-03-12T09:09:17.470Z,47.51
2023-03-12T09:11:45.850Z,46.69
2023-03-12T09:17:03.140Z,45.69
2023-03-12T09:19:31.770Z,45.29
2023-03-12T09:22:00.265Z,45.24
2023-03-12T09:36:26.019Z,40.32
2023-03-12T09:38:55.535Z,40.94
2023-03-12T09:41:27.756Z,41.25
2023-03-12T09:44:21.265Z,40.73
2023-03-12T09:46:56.974Z,39.61
2023-03-12T09:49:34.708Z,41.41
2023-03-12T09:52:18.655Z,41.55
2023-03-12T09:55:11.208Z,43.00
2023-03-12T09:57:40.090Z,42.36
2023-03-12T10:00:17.579Z,42.68
2023-03-12T10:03:24.285Z,41.66
2023-03-12T10:06:26.858Z,41.37
2023-03-12T10:09:25.421Z,41.54
2023-03-12T10:12:06.712Z,41.03
2023-03-12T10:14:50.131Z,39.66
2023-03-12T10:17:37.116Z,38.47
2023-03-12T10:20:22.843Z,37.51
2023-03-12T10:23:04.122Z,36.21
2023-03-12T10:25:45.494Z,36.29
2023-03-12T10:28:38.050Z,34.53
2023-03-12T10:31:20.413Z,36.51
2023-03-12T10:33:54.570Z,34.51
2023-03-12T10:36:30.111Z,33.73
2023-03-12T10:38:58.907Z,32.73
2023-03-12T10:41:34.781Z,32.81
2023-03-12T10:44:08.672Z,31.91
2023-03-12T10:59:30.973Z,30.46
2023-03-12T11:02:01.029Z,29.17
2023-03-12T11:04:32.856Z,28.27
2023-03-12T11:07:15.658Z,27.99
2023-03-12T11:09:44.829Z,27.03
2023-03-12T11:12:28.596Z,26.23
2023-03-12T11:14:58.310Z,27.52
2023-03-12T11:17:28.946Z,26.03
2023-03-12T11:19:57.929Z,25.02
2023-03-12T11:22:35.269Z,24.59
2023-03-12T11:25:07.815Z,25.50
2023-03-12T11:27:49.827Z,27.12
2023-03-12T11:30:25.078Z,28.30
2023-03-12T11:32:54.140Z,28.11
2023-03-12T11:35:39.615Z,28.04
2023-03-12T11:38:18.975Z,27.58
2023-03-12T11:41:09.231Z,26.90
2023-03-12T11:44:16.320Z,27.35
2023-03-12T11:47:00.080Z,26.29
2023-03-12T11:49:41.236Z,27.03
2023-03-12T11:52:27.532Z,26.83
2023-03-12T11:55:24.887Z,27.07
2023-03-12T11:58:09.243Z,26.16
2023-03-12T12:01:09.057Z,26.32
2023-03-12T12:03:53.002Z,24.58
2023-03-12T12:06:39.419Z,24.84
2023-03-12T12:09:20.696Z,25.19
2023-03-12T12:12:13.439Z,24.89
2023-03-12T12:14:45.194Z,27.02
2023-03-12T12:17:22.171Z,27.15
2023-03-12T12:20:42.161Z,27.13
2023-03-12T12:23:11.047Z,26.97
2023-03-12T12:26:07.500Z,27.08
2023-03-12T12:28:57.175Z,26.77
2023-03-12T12:31:40.860Z,26.80
2023-03-12T12:34:21.671Z,25.37
2023-03-12T12:36:57.731Z,24.85
2023-03-12T12:39:35.597Z,25.79
2023-03-12T12:42:08.255Z,27.50
2023-03-12T12:44:49.110Z,27.48
2023-03-12T12:47:28.925Z,27.91
2023-03-12T12:49:58.634Z,26.85
2023-03-12T12:52:27.834Z,27.23
2023-03-12T12:55:05.733Z,26.63
2023-03-12T12:57:34.775Z,27.16
2023-03-12T13:00:15.702Z,26.58
2023-03-12T13:02:48.232Z,26.50
2023-03-12T13:05:25.980Z,25.09
2023-03-12T13:07:55.178Z,24.32
2023-03-12T13:10:33.002Z,24.49
2023-03-12T13:13:07.910Z,23.57
2023-03-12T13:15:43.789Z,23.60
2023-03-12T13:18:24.622Z,23.90
2023-03-12T13:20:53.120Z,24.34
2023-03-12T13:23:31.438Z,25.04
2023-03-12T13:26:35.770Z,24.08
2023-03-12T13:29:37.526Z,23.67
2023-03-12T13:32:10.617Z,23.70
2023-03-12T13:34:47.490Z,24.15
2023-03-12T13:37:29.067Z,23.93
2023-03-12T13:40:03.393Z,23.48
2023-03-12T13:42:42.131Z,23.99
2023-03-12T13:45:31.930Z,23.89
2023-03-12T13:48:04.988Z,23.21
2023-03-12T13:50:52.296Z,23.44
2023-03-12T13:53:28.358Z,22.88
2023-03-12T13:56:28.064Z,22.33
2023-03-12T13:59:07.310Z,23.43
2023-03-12T14:01:47.173Z,23.35
2023-03-12T14:04:22.897Z,22.92
2023-03-12T14:07:03.667Z,23.04
2023-03-12T14:09:53.246Z,22.62
2023-03-12T14:13:04.627Z,22.58
2023-03-12T14:15:42.776Z,21.84
2023-03-12T14:18:28.718Z,21.77
2023-03-12T14:21:00.841Z,22.32
2023-03-12T14:23:37.557Z,22.82
2023-03-12T14:26:07.690Z,22.53
2023-03-12T14:28:41.992Z,22.52
2023-03-12T14:31:17.531Z,22.68
2023-03-12T14:33:59.022Z,22.19
2023-03-12T14:36:36.624Z,21.05
2023-03-12T14:39:25.997Z,21.62
2023-03-12T14:42:00.831Z,22.47
2023-03-12T14:44:31.053Z,22.48
2023-03-12T14:47:10.497Z,21.75
2023-03-12T14:49:44.910Z,21.81
2023-03-12T14:52:21.885Z,21.70
2023-03-12T14:54:59.888Z,21.80
2023-03-12T14:57:29.288Z,22.62
2023-03-12T15:00:00.393Z,22.48
2023-03-12T15:02:31.570Z,22.29
2023-03-12T15:05:02.590Z,22.31
2023-03-12T15:07:35.724Z,22.54
2023-03-12T15:10:08.297Z,22.61
2023-03-12T15:12:38.620Z,22.39
2023-03-12T15:15:11.388Z,23.04
2023-03-12T15:17:40.384Z,22.85
2023-03-12T15:20:15.936Z,23.54
2023-03-12T15:22:45.129Z,23.09
2023-03-12T15:25:25.276Z,22.92
2023-03-12T15:28:15.365Z,22.59
2023-03-12T15:30:44.623Z,21.98
2023-03-12T15:33:16.229Z,22.38
2023-03-12T15:36:18.754Z,22.87
2023-03-12T15:38:51.066Z,23.67
2023-03-12T15:41:49.208Z,23.83
2023-03-12T15:44:26.846Z,24.69
2023-03-12T15:47:04.373Z,25.57
2023-03-12T15:49:36.758Z,26.47
2023-03-12T15:52:20.541Z,28.28
2023-03-12T15:55:07.623Z,29.57
2023-03-12T15:57:48.223Z,30.20
2023-03-12T16:00:20.497Z,30.31
2023-03-12T16:02:55.941Z,30.89
2023-03-12T16:05:36.590Z,32.16
2023-03-12T16:08:31.903Z,33.12
2023-03-12T16:11:01.633Z,32.13
2023-03-12T16:13:32.317Z,32.96
2023-03-12T16:16:01.311Z,34.10
2023-03-12T16:18:30.035Z,35.32
2023-03-12T16:20:58.724Z,36.39
2023-03-12T16:23:27.406Z,37.59
2023-03-12T16:25:56.792Z,38.65
2023-03-12T16:28:26.113Z,39.77
2023-03-12T16:30:55.003Z,41.18
2023-03-12T16:33:25.019Z,42.32
2023-03-12T16:35:53.664Z,42.93
2023-03-12T16:38:22.489Z,43.04
2023-03-12T16:40:54.094Z,44.48
2023-03-12T16:43:24.923Z,45.24
2023-03-12T16:45:54.463Z,45.82
2023-03-12T16:48:26.990Z,46.57
2023-03-12T16:50:58.924Z,46.94
2023-03-12T16:53:28.627Z,47.54
2023-03-12T16:56:00.076Z,47.97
2023-03-12T16:58:30.222Z,48.43
2023-03-12T17:00:59.122Z,48.34
2023-03-12T17:03:35.486Z,49.48
2023-03-12T17:06:06.731Z,49.78
2023-03-12T17:08:36.407Z,49.26
2023-03-12T17:11:15.600Z,49.18
2023-03-12T17:13:46.258Z,48.83
2023-03-12T17:16:14.992Z,51.28
2023-03-12T17:18:44.160Z,50.67
2023-03-12T17:21:15.407Z,50.57
2023-03-12T17:23:47.168Z,50.10
2023-03-12T17:26:15.741Z,51.19
2023-03-12T17:28:44.853Z,49.77
2023-03-12T17:31:13.545Z,50.60
2023-03-12T17:33:43.538Z,52.14
2023-03-12T17:36:12.122Z,52.01
2023-03-12T17:38:40.816Z,50.91
2023-03-12T17:41:25.128Z,50.75
2023-03-12T17:43:58.879Z,52.34
2023-03-12T17:46:29.167Z,52.47
2023-03-12T17:48:57.874Z,51.86
2023-03-12T17:51:26.568Z,53.77
2023-03-12T17:53:55.147Z,52.39
2023-03-12T17:56:23.732Z,53.31
2023-03-12T17:58:52.320Z,52.89
2023-03-12T18:01:20.996Z,54.60
2023-03-12T18:03:51.572Z,53.99
2023-03-12T18:06:20.105Z,52.96
2023-03-12T18:08:48.686Z,50.73
2023-03-12T18:11:17.383Z,50.03
2023-03-12T18:13:48.618Z,51.21
2023-03-12T18:16:17.844Z,52.03
2023-03-12T18:18:46.508Z,51.54
2023-03-12T18:21:15.095Z,56.98
2023-03-12T18:23:44.199Z,57.09
2023-03-12T18:26:12.865Z,57.60
2023-03-12T18:28:41.347Z,60.12
2023-03-12T18:31:10.592Z,60.14
2023-03-12T18:33:39.241Z,59.27
2023-03-12T18:36:08.732Z,57.16
2023-03-12T18:38:39.476Z,53.49
2023-03-12T18:41:10.826Z,52.37
2023-03-12T18:43:40.364Z,53.40
2023-03-12T18:46:09.462Z,54.17
2023-03-12T18:48:38.006Z,58.13
2023-03-12T18:51:06.687Z,60.84
2023-03-12T18:53:35.285Z,60.66
2023-03-12T18:56:04.266Z,60.20
2023-03-12T18:58:32.952Z,59.40
2023-03-12T19:01:02.150Z,54.95
2023-03-12T19:03:36.668Z,54.52
2023-03-12T19:06:17.090Z,54.53
2023-03-12T19:08:45.511Z,54.30
2023-03-12T19:11:15.645Z,55.04
2023-03-12T19:13:45.643Z,55.20
2023-03-12T19:16:18.047Z,54.43
2023-03-12T19:18:46.700Z,55.03
2023-03-12T19:21:15.695Z,56.29
2023-03-12T19:23:45.098Z,57.28
2023-03-12T19:26:14.908Z,58.85
2023-03-12T19:28:43.593Z,59.35
2023-03-12T19:31:15.452Z,59.64
2023-03-12T19:33:45.483Z,59.11
2023-03-12T19:36:14.065Z,58.52
2023-03-12T19:38:42.841Z,59.13
2023-03-12T19:41:12.966Z,60.02
2023-03-12T19:43:41.962Z,60.28
2023-03-12T19:46:10.721Z,60.66
2023-03-12T19:48:39.530Z,62.85
2023-03-12T19:51:10.593Z,66.84
2023-03-12T19:53:39.358Z,65.24
2023-03-12T19:56:08.461Z,64.60
2023-03-12T19:58:37.042Z,65.52
2023-03-12T20:01:05.826Z,68.71
2023-03-12T20:03:34.900Z,70.45
2023-03-12T20:06:04.470Z,69.04
2023-03-12T20:08:33.108Z,67.21
2023-03-12T20:11:07.324Z,63.97
2023-03-12T20:13:38.978Z,63.18
2023-03-12T20:16:08.569Z,64.57
2023-03-12T20:18:39.725Z,63.47
2023-03-12T20:21:08.863Z,65.16
2023-03-12T20:23:37.516Z,71.38
2023-03-12T20:26:06.301Z,70.84
2023-03-12T20:28:35.293Z,68.38
2023-03-12T20:31:14.421Z,68.26
2023-03-12T20:33:43.432Z,64.09
2023-03-12T20:36:14.272Z,62.40
2023-03-12T20:38:43.546Z,64.77
2023-03-12T20:41:16.018Z,66.99
2023-03-12T20:43:45.638Z,66.30
2023-03-12T20:46:14.664Z,63.25
2023-03-12T20:48:43.825Z,63.61
2023-03-12T20:51:12.717Z,65.56
2023-03-12T20:53:41.508Z,66.85
2023-03-12T20:56:11.349Z,69.97
2023-03-12T20:58:40.200Z,73.90
2023-03-12T21:01:09.347Z,76.05
2023-03-12T21:03:37.884Z,76.01
2023-03-12T21:06:07.286Z,75.26
2023-03-12T21:08:35.874Z,71.95
2023-03-12T21:11:08.986Z,72.23
2023-03-12T21:13:37.569Z,70.46
2023-03-12T21:16:08.129Z,69.00
2023-03-12T21:18:36.966Z,74.83
2023-03-12T21:21:08.247Z,74.98
2023-03-12T21:23:38.180Z,72.96
2023-03-12T21:26:09.372Z,71.97
2023-03-12T21:28:38.585Z,70.36
2023-03-12T21:31:12.902Z,68.94
2023-03-12T21:33:42.504Z,68.57
2023-03-12T21:36:13.799Z,71.50
2023-03-12T21:38:43.412Z,70.85
2023-03-12T21:41:15.726Z,71.03
2023-03-12T21:43:45.630Z,69.22
2023-03-12T21:46:19.057Z,71.33
2023-03-12T21:48:48.687Z,70.15
2023-03-12T21:51:18.984Z,69.30
2023-03-12T21:53:47.642Z,72.62
2023-03-12T21:56:16.761Z,74.84
2023-03-12T21:58:45.526Z,75.86
2023-03-12T22:01:17.570Z,73.41
2023-03-12T22:03:47.687Z,70.35
2023-03-12T22:06:17.017Z,68.79
2023-03-12T22:08:48.390Z,67.13
2023-03-12T22:11:17.450Z,68.43
2023-03-12T22:13:46.569Z,69.99
2023-03-12T22:16:16.617Z,69.73
2023-03-12T22:18:46.789Z,70.46
2023-03-12T22:21:19.773Z,70.68
2023-03-12T22:23:53.783Z,71.90
2023-03-12T22:26:25.276Z,73.11
2023-03-12T22:28:57.329Z,72.48
2023-03-12T22:31:28.284Z,75.76
2023-03-12T22:33:58.047Z,74.43
2023-03-12T22:36:27.662Z,72.58
2023-03-12T22:38:56.849Z,72.88
2023-03-12T22:41:30.044Z,75.68
2023-03-12T22:44:05.620Z,75.82
2023-03-12T22:46:34.928Z,76.99
2023-03-12T22:49:05.387Z,75.18
2023-03-12T22:51:34.840Z,73.42
2023-03-12T22:54:05.210Z,69.54
2023-03-12T22:56:34.627Z,68.40
2023-03-12T22:59:04.251Z,68.78
2023-03-12T23:01:33.581Z,69.62
2023-03-12T23:04:04.514Z,73.03
2023-03-12T23:06:33.500Z,75.09
2023-03-12T23:09:02.699Z,74.49
2023-03-12T23:11:31.793Z,72.08
2023-03-12T23:14:00.977Z,70.37
2023-03-12T23:16:30.225Z,69.76
2023-03-12T23:19:00.620Z,70.53
2023-03-12T23:21:30.220Z,72.66
2023-03-12T23:23:59.505Z,76.61
2023-03-12T23:26:29.936Z,77.50
2023-03-12T23:28:59.971Z,76.65
2023-03-12T23:31:30.580Z,76.99
2023-03-12T23:34:00.371Z,76.09
2023-03-12T23:36:30.985Z,78.52
2023-03-12T23:39:00.559Z,77.60
2023-03-12T23:41:31.120Z,77.04
2023-03-12T23:44:01.976Z,77.05
2023-03-12T23:46:31.952Z,73.89
2023-03-12T23:49:01.563Z,70.41
2023-03-12T23:51:33.634Z,70.05
2023-03-12T23:54:05.963Z,70.42
2023-03-12T23:56:37.779Z,75.83
2023-03-12T23:59:09.787Z,77.38
